Terminal Aerodrome Forecast
Issued by NWS

Home | Current Version | Previous Version | Text Only | Print | Product List | Glossary On
Versions: 1 2 3 4 5 6 7 8 9 10 11 12 13 14
000
FTUS45 KRIW 231100
TAFCPR
TAF
KCPR 231128Z 2312/2412 25009KT P6SM SCT090
     FM231400 26012KT P6SM SCT080
     FM232000 29011KT P6SM SCT060
     FM240100 VRB06KT P6SM FEW060
     FM240500 24006KT P6SM SKC=

USA.gov is the U.S. government's official web portal to all federal, state and local government web resources and services.